createdAt,value
2022-12-25T00:02:00.710Z,59.52
2022-12-25T00:04:27.677Z,59.51
2022-12-25T00:06:55.493Z,59.51
2022-12-25T00:09:22.428Z,59.30
2022-12-25T00:11:49.128Z,59.32
2022-12-25T00:14:15.843Z,59.32
2022-12-25T00:16:42.787Z,58.84
2022-12-25T00:19:09.478Z,59.03
2022-12-25T00:21:36.252Z,59.13
2022-12-25T00:24:03.583Z,59.79
2022-12-25T00:26:30.373Z,59.87
2022-12-25T00:28:58.251Z,60.01
2022-12-25T00:31:25.654Z,59.71
2022-12-25T00:33:53.100Z,59.90
2022-12-25T00:36:21.986Z,59.79
2022-12-25T00:38:48.775Z,59.69
2022-12-25T00:41:38.389Z,59.87
2022-12-25T00:44:06.019Z,59.79
2022-12-25T00:46:32.773Z,59.78
2022-12-25T00:49:02.644Z,60.17
2022-12-25T00:51:29.389Z,60.18
2022-12-25T00:53:56.000Z,60.16
2022-12-25T00:56:22.739Z,59.76
2022-12-25T00:58:49.387Z,59.76
2022-12-25T01:01:16.155Z,60.04
2022-12-25T01:03:43.207Z,59.92
2022-12-25T01:06:12.760Z,59.78
2022-12-25T01:09:00.120Z,59.41
2022-12-25T01:11:27.590Z,59.93
2022-12-25T01:13:54.277Z,59.89
2022-12-25T01:16:21.309Z,59.79
2022-12-25T01:18:48.018Z,59.79
2022-12-25T01:21:17.623Z,59.71
2022-12-25T01:23:44.841Z,60.04
2022-12-25T01:26:13.417Z,60.49
2022-12-25T01:28:40.840Z,60.47
2022-12-25T01:31:14.612Z,60.39
2022-12-25T01:33:43.637Z,60.35
2022-12-25T01:36:24.952Z,59.96
2022-12-25T01:38:52.977Z,60.29
2022-12-25T01:41:22.098Z,60.27
2022-12-25T01:44:02.045Z,60.27
2022-12-25T01:46:29.848Z,60.70
2022-12-25T01:49:00.465Z,60.64
2022-12-25T01:51:37.011Z,60.74
2022-12-25T01:54:07.641Z,60.63
2022-12-25T01:56:37.592Z,60.59
2022-12-25T01:59:06.325Z,60.75
2022-12-25T02:01:33.171Z,60.99
2022-12-25T02:04:23.658Z,60.78
2022-12-25T02:06:51.685Z,60.96
2022-12-25T02:09:18.940Z,61.25
2022-12-25T02:11:58.856Z,61.38
2022-12-25T02:14:29.701Z,60.94
2022-12-25T02:17:13.213Z,61.27
2022-12-25T02:20:03.399Z,61.11
2022-12-25T02:22:57.669Z,61.30
2022-12-25T02:25:43.463Z,61.63
2022-12-25T02:28:25.123Z,61.81
2022-12-25T02:31:01.237Z,62.00
2022-12-25T02:33:55.781Z,62.17
2022-12-25T02:36:27.355Z,61.89
2022-12-25T02:39:17.590Z,61.69
2022-12-25T02:41:47.906Z,62.11
2022-12-25T02:44:39.600Z,61.91
2022-12-25T02:47:27.035Z,62.00
2022-12-25T02:50:14.907Z,61.92
2022-12-25T02:53:03.263Z,61.89
2022-12-25T02:55:57.404Z,62.06
2022-12-25T02:58:45.442Z,61.71
2022-12-25T03:01:36.532Z,61.76
2022-12-25T03:04:27.063Z,61.85
2022-12-25T03:07:06.070Z,61.41
2022-12-25T03:09:57.765Z,61.03
2022-12-25T03:12:37.535Z,61.56
2022-12-25T03:15:24.973Z,60.99
2022-12-25T03:17:52.102Z,61.26
2022-12-25T03:20:37.516Z,61.21
2022-12-25T03:23:23.043Z,61.14
2022-12-25T03:26:08.417Z,60.96
2022-12-25T03:28:36.259Z,60.78
2022-12-25T03:31:14.091Z,60.31
2022-12-25T03:34:22.996Z,60.00
2022-12-25T03:37:27.712Z,59.50
2022-12-25T03:40:56.092Z,59.77
2022-12-25T03:43:56.570Z,59.16
2022-12-25T03:46:45.428Z,59.54
2022-12-25T03:49:42.047Z,59.49
2022-12-25T03:52:32.575Z,59.25
2022-12-25T03:55:22.853Z,59.53
2022-12-25T03:58:08.537Z,59.41
2022-12-25T04:00:53.691Z,59.35
2022-12-25T04:03:39.109Z,59.15
2022-12-25T04:06:24.729Z,59.10
2022-12-25T04:09:10.005Z,59.95
2022-12-25T04:12:03.336Z,60.14
2022-12-25T04:14:48.814Z,59.96
2022-12-25T04:17:34.301Z,60.02
2022-12-25T04:20:19.645Z,60.24
2022-12-25T04:23:05.051Z,60.11
2022-12-25T04:25:50.475Z,60.28
2022-12-25T04:28:35.943Z,60.91
2022-12-25T04:31:21.980Z,60.69
2022-12-25T04:34:07.127Z,60.97
2022-12-25T04:36:33.820Z,60.96
2022-12-25T04:39:00.477Z,61.00
2022-12-25T04:41:27.143Z,61.28
2022-12-25T04:43:53.760Z,61.28
2022-12-25T04:46:20.426Z,61.25
2022-12-25T04:48:47.845Z,60.92
2022-12-25T04:51:17.753Z,61.04
2022-12-25T04:53:45.461Z,60.84
2022-12-25T04:56:12.597Z,60.85
2022-12-25T04:58:39.359Z,61.09
2022-12-25T05:01:06.244Z,61.01
2022-12-25T05:03:33.689Z,61.39
2022-12-25T05:06:01.364Z,61.41
2022-12-25T05:08:32.347Z,61.40
2022-12-25T05:10:59.243Z,61.14
2022-12-25T05:13:26.284Z,60.99
2022-12-25T05:15:53.211Z,60.84
2022-12-25T05:18:19.898Z,60.78
2022-12-25T05:20:54.631Z,60.77
2022-12-25T05:23:22.179Z,60.88
2022-12-25T05:25:49.021Z,60.92
2022-12-25T05:28:15.999Z,61.00
2022-12-25T05:30:42.802Z,61.04
2022-12-25T05:33:12.546Z,60.92
2022-12-25T05:35:39.985Z,61.04
2022-12-25T05:38:07.808Z,60.83
2022-12-25T05:40:34.850Z,60.79
2022-12-25T05:43:01.537Z,60.83
2022-12-25T05:45:28.332Z,60.60
2022-12-25T05:47:55.010Z,60.65
2022-12-25T05:50:21.718Z,60.74
2022-12-25T05:52:48.391Z,60.80
2022-12-25T05:55:15.098Z,60.67
2022-12-25T05:57:41.803Z,61.09
2022-12-25T06:00:11.783Z,61.31
2022-12-25T06:02:41.230Z,61.06
2022-12-25T06:05:08.403Z,60.90
2022-12-25T06:07:35.052Z,61.23
2022-12-25T06:10:01.737Z,60.75
2022-12-25T06:12:28.383Z,60.74
2022-12-25T06:14:54.996Z,60.63
2022-12-25T06:17:24.487Z,60.65
2022-12-25T06:19:51.130Z,60.40
2022-12-25T06:22:17.818Z,59.63
2022-12-25T06:24:44.555Z,59.85
2022-12-25T06:27:11.211Z,60.18
2022-12-25T06:29:37.919Z,59.92
2022-12-25T06:32:04.855Z,59.15
2022-12-25T06:34:31.557Z,58.88
2022-12-25T06:36:58.185Z,58.40
2022-12-25T06:39:25.550Z,59.49
2022-12-25T06:41:52.271Z,59.72
2022-12-25T06:44:18.993Z,59.87
2022-12-25T06:46:45.786Z,60.58
2022-12-25T06:49:12.628Z,60.81
2022-12-25T06:51:39.273Z,60.98
2022-12-25T06:54:06.415Z,60.67
2022-12-25T06:56:33.987Z,60.68
2022-12-25T06:59:06.481Z,60.85
2022-12-25T07:01:42.068Z,60.86
2022-12-25T07:04:38.320Z,60.63
2022-12-25T07:07:09.181Z,60.60
2022-12-25T07:09:38.731Z,60.20
2022-12-25T07:12:13.677Z,60.23
2022-12-25T07:14:40.797Z,60.33
2022-12-25T07:17:07.489Z,60.44
2022-12-25T07:19:36.145Z,60.19
2022-12-25T07:22:06.451Z,60.12
2022-12-25T07:24:33.168Z,59.74
2022-12-25T07:26:59.915Z,59.97
2022-12-25T07:29:26.627Z,59.67
2022-12-25T07:31:53.330Z,59.43
2022-12-25T07:34:20.119Z,59.39
2022-12-25T07:36:46.921Z,59.27
2022-12-25T07:39:13.812Z,59.24
2022-12-25T07:41:40.515Z,59.10
2022-12-25T07:44:14.600Z,59.17
2022-12-25T07:46:41.514Z,59.38
2022-12-25T07:49:08.180Z,59.47
2022-12-25T07:51:34.925Z,59.93
2022-12-25T07:54:01.654Z,59.80
2022-12-25T07:56:28.507Z,59.68
2022-12-25T07:58:55.202Z,59.91
2022-12-25T08:01:24.739Z,59.81
2022-12-25T08:03:52.533Z,59.62
2022-12-25T08:06:20.341Z,59.93
2022-12-25T08:08:47.157Z,60.06
2022-12-25T08:11:14.401Z,60.36
2022-12-25T08:13:41.296Z,60.47
2022-12-25T08:16:10.173Z,60.01
2022-12-25T08:18:38.107Z,60.09
2022-12-25T08:21:10.258Z,60.32
2022-12-25T08:23:39.357Z,60.20
2022-12-25T08:26:08.409Z,59.72
2022-12-25T08:28:35.939Z,59.39
2022-12-25T08:31:10.631Z,59.70
2022-12-25T08:33:37.567Z,59.33
2022-12-25T08:36:06.442Z,59.15
2022-12-25T08:38:33.460Z,59.70
2022-12-25T08:41:00.440Z,59.87
2022-12-25T08:43:27.285Z,59.66
2022-12-25T08:45:53.998Z,59.30
2022-12-25T08:48:20.805Z,59.43
2022-12-25T08:50:48.725Z,59.32
2022-12-25T08:53:15.910Z,58.29
2022-12-25T08:55:43.237Z,58.50
2022-12-25T08:58:10.658Z,58.06
2022-12-25T09:00:37.438Z,57.69
2022-12-25T09:03:04.427Z,57.57
2022-12-25T09:05:31.263Z,57.51
2022-12-25T09:07:57.942Z,57.47
2022-12-25T09:10:24.673Z,57.07
2022-12-25T09:12:51.327Z,57.06
2022-12-25T09:15:18.018Z,56.90
2022-12-25T09:17:44.865Z,56.69
2022-12-25T09:20:11.553Z,56.08
2022-12-25T09:22:38.425Z,55.54
2022-12-25T09:25:05.512Z,54.56
2022-12-25T09:27:32.266Z,53.75
2022-12-25T09:29:59.001Z,53.98
2022-12-25T09:32:25.696Z,53.75
2022-12-25T09:34:52.387Z,53.42
2022-12-25T09:37:19.074Z,53.44
2022-12-25T09:39:46.487Z,53.15
2022-12-25T09:42:23.942Z,52.89
2022-12-25T09:44:59.229Z,53.61
2022-12-25T09:47:30.924Z,53.26
2022-12-25T09:50:03.357Z,52.93
2022-12-25T09:52:33.025Z,53.00
2022-12-25T09:55:14.789Z,53.21
2022-12-25T09:57:45.780Z,53.33
2022-12-25T10:00:18.503Z,53.80
2022-12-25T10:02:55.673Z,53.96
2022-12-25T10:05:44.104Z,53.92
2022-12-25T10:08:39.375Z,53.58
2022-12-25T10:11:38.215Z,54.08
2022-12-25T10:14:10.904Z,54.19
2022-12-25T10:16:55.147Z,54.29
2022-12-25T10:19:50.657Z,53.98
2022-12-25T10:22:29.083Z,53.43
2022-12-25T10:24:59.216Z,53.15
2022-12-25T10:27:25.844Z,52.53
2022-12-25T10:29:56.412Z,52.71
2022-12-25T10:32:23.179Z,52.82
2022-12-25T10:34:50.590Z,53.11
2022-12-25T10:37:17.691Z,53.21
2022-12-25T10:39:46.904Z,53.28
2022-12-25T10:42:46.175Z,53.34
2022-12-25T10:45:12.940Z,52.87
2022-12-25T10:47:44.117Z,51.49
2022-12-25T10:50:26.052Z,48.96
2022-12-25T10:52:56.744Z,48.34
2022-12-25T10:55:28.389Z,47.99
2022-12-25T10:57:57.935Z,48.13
2022-12-25T11:00:27.817Z,48.51
2022-12-25T11:02:55.157Z,48.86
2022-12-25T11:05:33.577Z,49.34
2022-12-25T11:08:02.443Z,49.89
2022-12-25T11:10:33.863Z,51.08
2022-12-25T11:13:01.628Z,50.87
2022-12-25T11:15:42.786Z,50.88
2022-12-25T11:18:21.041Z,51.84
2022-12-25T11:20:52.891Z,51.43
2022-12-25T11:23:21.864Z,50.63
2022-12-25T11:26:02.826Z,50.00
2022-12-25T11:28:32.749Z,48.89
2022-12-25T11:31:02.856Z,46.43
2022-12-25T11:33:36.542Z,44.03
2022-12-25T11:36:14.053Z,40.76
2022-12-25T11:38:40.736Z,39.09
2022-12-25T11:41:12.760Z,38.88
2022-12-25T11:43:46.645Z,37.81
2022-12-25T11:46:45.298Z,37.72
2022-12-25T11:49:16.794Z,36.53
2022-12-25T11:51:47.200Z,35.69
2022-12-25T11:54:37.908Z,34.86
2022-12-25T11:57:06.365Z,34.77
2022-12-25T11:59:49.367Z,35.16
2022-12-25T12:02:28.270Z,34.87
2022-12-25T12:05:14.644Z,35.64
2022-12-25T12:07:52.445Z,35.45
2022-12-25T12:10:41.961Z,35.81
2022-12-25T12:13:30.976Z,37.40
2022-12-25T12:15:58.507Z,38.61
2022-12-25T12:18:27.992Z,40.85
2022-12-25T12:21:09.686Z,43.27
2022-12-25T12:23:57.179Z,44.10
2022-12-25T12:26:27.142Z,44.50
2022-12-25T12:28:57.580Z,45.86
2022-12-25T12:31:25.180Z,46.38
2022-12-25T12:33:56.487Z,46.89
2022-12-25T12:36:35.547Z,47.25
2022-12-25T12:39:05.033Z,47.54
2022-12-25T12:41:46.260Z,48.14
2022-12-25T12:44:15.995Z,48.73
2022-12-25T12:46:52.460Z,48.71
2022-12-25T12:49:32.218Z,48.79
2022-12-25T12:52:23.911Z,49.45
2022-12-25T12:55:09.067Z,49.55
2022-12-25T12:57:40.170Z,50.15
2022-12-25T13:00:19.905Z,50.49
2022-12-25T13:02:52.473Z,50.95
2022-12-25T13:05:48.879Z,50.82
2022-12-25T13:08:27.786Z,51.50
2022-12-25T13:11:12.765Z,51.70
2022-12-25T13:13:42.605Z,51.56
2022-12-25T13:16:34.537Z,51.68
2022-12-25T13:19:07.126Z,52.29
2022-12-25T13:21:34.919Z,51.91
2022-12-25T13:24:16.707Z,51.56
2022-12-25T13:26:43.740Z,52.07
2022-12-25T13:29:39.845Z,52.05
2022-12-25T13:32:18.100Z,52.51
2022-12-25T13:34:44.894Z,52.04
2022-12-25T13:37:17.809Z,52.06
2022-12-25T13:40:17.332Z,52.75
2022-12-25T13:42:46.778Z,52.24
2022-12-25T13:45:13.385Z,52.20
2022-12-25T13:47:49.923Z,52.26
2022-12-25T13:50:31.763Z,53.30
2022-12-25T13:53:12.140Z,53.09
2022-12-25T13:55:41.616Z,53.13
2022-12-25T13:58:25.015Z,52.34
2022-12-25T14:00:54.326Z,52.01
2022-12-25T14:03:27.841Z,51.92
2022-12-25T14:06:00.174Z,52.24
2022-12-25T14:08:31.489Z,52.16
2022-12-25T14:11:01.495Z,52.52
2022-12-25T14:13:30.283Z,52.49
2022-12-25T14:15:57.920Z,51.87
2022-12-25T14:18:25.985Z,52.06
2022-12-25T14:21:15.441Z,52.09
2022-12-25T14:23:48.509Z,52.34
2022-12-25T14:26:16.569Z,52.83
2022-12-25T14:28:48.364Z,52.92
2022-12-25T14:31:15.442Z,52.71
2022-12-25T14:33:45.556Z,52.69
2022-12-25T14:36:13.460Z,52.63
2022-12-25T14:38:43.772Z,52.49
2022-12-25T14:41:33.457Z,52.31
2022-12-25T14:44:25.436Z,52.33
2022-12-25T14:47:13.799Z,52.98
2022-12-25T14:49:40.833Z,52.62
2022-12-25T14:52:17.903Z,52.74
2022-12-25T14:55:00.810Z,53.31
2022-12-25T14:57:34.276Z,53.93
2022-12-25T15:00:10.366Z,53.27
2022-12-25T15:02:42.652Z,53.55
2022-12-25T15:05:30.373Z,53.83
2022-12-25T15:08:06.393Z,53.60
2022-12-25T15:13:21.387Z,53.94
2022-12-25T15:15:54.610Z,54.72
2022-12-25T15:18:27.458Z,54.48
2022-12-25T15:20:55.469Z,54.41
2022-12-25T15:23:22.289Z,54.39
2022-12-25T15:25:50.972Z,54.95
2022-12-25T15:28:18.510Z,55.81
2022-12-25T15:30:45.646Z,55.59
2022-12-25T15:33:17.051Z,55.11
2022-12-25T15:35:44.480Z,55.09
2022-12-25T15:38:13.081Z,54.91
2022-12-25T15:40:40.727Z,55.88
2022-12-25T15:43:14.557Z,55.23
2022-12-25T15:45:49.172Z,55.25
2022-12-25T15:48:15.848Z,55.27
2022-12-25T15:50:44.151Z,55.19
2022-12-25T15:53:10.985Z,55.41
2022-12-25T15:55:38.102Z,55.76
2022-12-25T15:58:04.739Z,56.27
2022-12-25T16:00:31.530Z,56.09
2022-12-25T16:02:58.403Z,56.12
2022-12-25T16:05:26.558Z,56.61
2022-12-25T16:07:53.169Z,56.94
2022-12-25T16:10:20.404Z,56.22
2022-12-25T16:12:47.406Z,55.98
2022-12-25T16:15:15.275Z,55.89
2022-12-25T16:17:42.508Z,56.34
2022-12-25T16:20:09.766Z,57.56
2022-12-25T16:22:39.999Z,56.72
2022-12-25T16:25:13.838Z,56.97
2022-12-25T16:27:40.622Z,56.63
2022-12-25T16:30:07.986Z,56.75
2022-12-25T16:32:35.191Z,56.47
2022-12-25T16:35:02.074Z,56.51
2022-12-25T16:37:29.173Z,56.44
2022-12-25T16:39:55.820Z,57.00
2022-12-25T16:42:22.616Z,57.42
2022-12-25T16:44:49.273Z,56.90
2022-12-25T16:47:15.947Z,57.58
2022-12-25T16:49:45.791Z,57.79
2022-12-25T16:52:12.447Z,57.76
2022-12-25T16:54:39.108Z,57.12
2022-12-25T16:57:05.872Z,57.14
2022-12-25T16:59:32.939Z,57.10
2022-12-25T17:01:59.748Z,57.11
2022-12-25T17:04:28.071Z,57.13
2022-12-25T17:06:54.835Z,57.04
2022-12-25T17:09:21.539Z,56.63
2022-12-25T17:11:48.497Z,57.36
2022-12-25T17:14:15.641Z,57.04
2022-12-25T17:16:42.694Z,57.58
2022-12-25T17:19:19.465Z,57.65
2022-12-25T17:21:47.297Z,57.69
2022-12-25T17:24:14.534Z,57.29
2022-12-25T17:26:44.084Z,57.79
2022-12-25T17:29:14.683Z,57.31
2022-12-25T17:31:45.343Z,57.64
2022-12-25T17:34:12.142Z,58.31
2022-12-25T17:36:38.849Z,57.28
2022-12-25T17:39:06.377Z,57.58
2022-12-25T17:41:33.417Z,56.85
2022-12-25T17:44:00.143Z,57.29
2022-12-25T17:46:29.223Z,57.40
2022-12-25T17:48:57.848Z,57.05
2022-12-25T17:51:27.173Z,57.09
2022-12-25T17:53:56.891Z,57.38
2022-12-25T17:56:24.390Z,56.86
2022-12-25T17:58:53.294Z,56.33
2022-12-25T18:01:20.862Z,56.33
2022-12-25T18:03:48.359Z,56.91
2022-12-25T18:06:19.219Z,56.25
2022-12-25T18:08:47.174Z,56.33
2022-12-25T18:11:16.809Z,56.23
2022-12-25T18:13:48.184Z,55.98
2022-12-25T18:16:15.613Z,55.88
2022-12-25T18:18:49.529Z,56.35
2022-12-25T18:21:18.699Z,56.68
2022-12-25T18:23:46.270Z,56.34
2022-12-25T18:26:13.868Z,55.98
2022-12-25T18:28:42.284Z,55.54
2022-12-25T18:31:20.344Z,56.21
2022-12-25T18:33:47.476Z,56.82
2022-12-25T18:36:16.328Z,56.85
2022-12-25T18:38:43.104Z,57.47
2022-12-25T18:41:10.525Z,56.92
2022-12-25T18:43:52.465Z,56.25
2022-12-25T18:46:24.869Z,55.54
2022-12-25T18:48:53.605Z,56.36
2022-12-25T18:51:20.297Z,55.87
2022-12-25T18:53:47.136Z,55.89
2022-12-25T18:56:17.501Z,56.52
2022-12-25T18:58:45.617Z,56.33
2022-12-25T19:01:18.433Z,55.85
2022-12-25T19:03:46.187Z,56.74
2022-12-25T19:06:17.978Z,56.13
2022-12-25T19:08:44.700Z,56.47
2022-12-25T19:11:11.467Z,55.96
2022-12-25T19:13:38.203Z,56.12
2022-12-25T19:16:05.475Z,56.14
2022-12-25T19:18:32.259Z,56.34
2022-12-25T19:21:04.151Z,56.85
2022-12-25T19:23:31.399Z,56.98
2022-12-25T19:25:58.186Z,57.10
2022-12-25T19:28:25.403Z,56.28
2022-12-25T19:30:54.123Z,56.78
2022-12-25T19:33:22.739Z,56.68
2022-12-25T19:35:49.855Z,56.58
2022-12-25T19:38:16.564Z,56.57
2022-12-25T19:41:00.244Z,56.60
2022-12-25T19:43:32.630Z,56.37
2022-12-25T19:46:00.475Z,56.87
2022-12-25T19:48:29.717Z,56.54
2022-12-25T19:50:56.736Z,56.07
2022-12-25T19:53:24.292Z,56.60
2022-12-25T19:55:55.421Z,56.37
2022-12-25T19:58:23.686Z,56.20
2022-12-25T20:01:01.493Z,56.08
2022-12-25T20:03:28.322Z,55.88
2022-12-25T20:05:55.117Z,56.95
2022-12-25T20:08:22.007Z,56.06
2022-12-25T20:10:49.175Z,56.00
2022-12-25T20:13:16.350Z,56.27
2022-12-25T20:15:43.062Z,56.68
2022-12-25T20:18:10.172Z,56.10
2022-12-25T20:20:36.888Z,55.86
2022-12-25T20:23:03.972Z,55.80
2022-12-25T20:25:30.591Z,55.34
2022-12-25T20:27:58.040Z,56.28
2022-12-25T20:30:24.805Z,56.18
2022-12-25T20:32:51.543Z,55.17
2022-12-25T20:35:18.950Z,55.34
2022-12-25T20:37:45.676Z,54.67
2022-12-25T20:40:12.681Z,55.15
2022-12-25T20:42:39.367Z,54.57
2022-12-25T20:45:07.726Z,55.14
2022-12-25T20:47:35.252Z,55.35
2022-12-25T20:50:02.208Z,55.14
2022-12-25T20:52:29.004Z,54.78
2022-12-25T20:54:55.676Z,54.50
2022-12-25T20:57:22.436Z,54.13
2022-12-25T20:59:49.307Z,54.63
2022-12-25T21:02:34.211Z,54.67
2022-12-25T21:05:07.910Z,54.39
2022-12-25T21:07:34.687Z,54.74
2022-12-25T21:10:01.291Z,54.38
2022-12-25T21:12:28.036Z,54.29
2022-12-25T21:14:54.842Z,54.21
2022-12-25T21:17:21.939Z,54.31
2022-12-25T21:19:49.558Z,53.92
2022-12-25T21:22:16.247Z,53.77
2022-12-25T21:24:42.969Z,53.52
2022-12-25T21:27:09.698Z,53.58
2022-12-25T21:29:36.621Z,53.54
2022-12-25T21:32:21.599Z,54.65
2022-12-25T21:34:48.288Z,54.13
2022-12-25T21:37:14.939Z,53.76
2022-12-25T21:39:41.661Z,53.93
2022-12-25T21:42:08.402Z,53.83
2022-12-25T21:44:35.093Z,54.27
2022-12-25T21:47:01.730Z,54.27
2022-12-25T21:49:47.014Z,53.83
2022-12-25T21:52:13.648Z,54.12
2022-12-25T21:54:40.324Z,53.77
2022-12-25T21:57:07.051Z,54.02
2022-12-25T21:59:33.740Z,53.95
2022-12-25T22:02:00.557Z,53.59
2022-12-25T22:04:27.398Z,53.65
2022-12-25T22:07:12.712Z,53.66
2022-12-25T22:09:39.423Z,54.22
2022-12-25T22:12:30.125Z,53.53
2022-12-25T22:15:02.991Z,53.77
2022-12-25T22:17:57.705Z,54.01
2022-12-25T22:20:27.873Z,53.96
2022-12-25T22:22:54.840Z,53.55
2022-12-25T22:25:21.948Z,53.17
2022-12-25T22:27:49.633Z,52.69
2022-12-25T22:30:19.113Z,53.16
2022-12-25T22:32:46.517Z,52.76
2022-12-25T22:35:13.809Z,52.58
2022-12-25T22:37:42.653Z,52.50
2022-12-25T22:40:12.490Z,52.22
2022-12-25T22:42:40.754Z,52.83
2022-12-25T22:45:08.093Z,52.09
2022-12-25T22:47:34.837Z,52.90
2022-12-25T22:50:01.694Z,52.45
2022-12-25T22:52:28.443Z,52.11
2022-12-25T22:54:55.114Z,51.97
2022-12-25T22:57:21.781Z,52.19
2022-12-25T22:59:48.449Z,52.82
2022-12-25T23:02:15.409Z,53.46
2022-12-25T23:04:42.248Z,53.75
2022-12-25T23:07:10.393Z,53.64
2022-12-25T23:09:37.031Z,53.84
2022-12-25T23:12:03.975Z,53.31
2022-12-25T23:14:39.734Z,53.37
2022-12-25T23:17:29.978Z,52.85
2022-12-25T23:20:17.490Z,53.09
2022-12-25T23:23:03.640Z,54.05
2022-12-25T23:25:48.983Z,53.64
2022-12-25T23:28:35.860Z,52.96
2022-12-25T23:31:02.653Z,52.75
2022-12-25T23:33:29.370Z,53.48
2022-12-25T23:35:56.029Z,52.76
2022-12-25T23:38:22.613Z,53.00
2022-12-25T23:40:49.295Z,52.74
2022-12-25T23:43:16.002Z,52.70
2022-12-25T23:45:42.671Z,53.22
2022-12-25T23:48:09.298Z,53.21
2022-12-25T23:50:37.585Z,53.17
2022-12-25T23:53:04.224Z,52.70
2022-12-25T23:55:30.924Z,52.58
2022-12-25T23:57:57.583Z,52.36
